Time;durP1;ratioP1;P1;durP2;ratioP2;P2;SDS_P1;SDS_P2;PMS_P1;PMS_P2;Temp;Humidity;BMP_temperature;BMP_pressure;BME280_temperature;BME280_humidity;BME280_pressure;Samples;Min_cycle;Max_cycle;Signal;HPM_P1;HPM_P2
2024/01/11 00:01:10;;;;;;;;;;;28.90;99.90;;;;;;5112915;28;19934;-71
2024/01/11 00:03:36;;;;;;;;;;;28.90;99.90;;;;;;5098791;28;19919;-71
2024/01/11 00:06:04;;;;;;;;;;;28.80;99.90;;;;;;5111078;28;19908;-65
2024/01/11 00:08:30;;;;;;;;;;;28.70;99.90;;;;;;5096667;28;20030;-65
2024/01/11 00:10:57;;;;;;;;;;;28.80;99.90;;;;;;5100140;28;19919;-65
2024/01/11 00:13:24;;;;;;;;;;;28.80;99.90;;;;;;5108398;28;20318;-65
2024/01/11 00:15:50;;;;;;;;;;;29.00;99.90;;;;;;5115911;28;19951;-64
2024/01/11 00:18:17;;;;;;;;;;;29.00;99.90;;;;;;5115425;28;20336;-72
2024/01/11 00:20:44;;;;;;;;;;;29.10;99.90;;;;;;5114434;28;19911;-68
2024/01/11 00:23:10;;;;;;;;;;;29.20;99.90;;;;;;5105892;28;19912;-67
2024/01/11 00:25:37;;;;;;;;;;;29.20;99.90;;;;;;5109310;28;20318;-69
2024/01/11 00:28:04;;;;;;;;;;;29.20;99.90;;;;;;5110876;28;19927;-70
2024/01/11 00:30:30;;;;;;;;;;;29.10;99.90;;;;;;5109611;27;19945;-66
2024/01/11 00:32:57;;;;;;;;;;;29.00;99.90;;;;;;5116820;27;20011;-66
2024/01/11 00:35:24;;;;;;;;;;;29.00;99.90;;;;;;5124043;27;19918;-67
2024/01/11 00:37:51;;;;;;;;;;;29.10;99.90;;;;;;5094353;28;19908;-71
2024/01/11 00:40:17;;;;;;;;;;;29.30;99.90;;;;;;5099150;28;19919;-70
2024/01/11 00:42:44;;;;;;;;;;;29.30;99.90;;;;;;5109643;28;19955;-73
2024/01/11 00:45:11;;;;;;;;;;;29.50;99.90;;;;;;5103823;28;19969;-70
2024/01/11 00:47:37;;;;;;;;;;;29.70;99.90;;;;;;5112558;28;19916;-70
2024/01/11 00:50:04;;;;;;;;;;;29.60;99.90;;;;;;5105946;28;19951;-68
2024/01/11 00:52:31;;;;;;;;;;;29.50;99.90;;;;;;5099188;28;19916;-74
2024/01/11 00:54:57;;;;;;;;;;;29.40;99.90;;;;;;5114837;28;20518;-69
2024/01/11 00:57:24;;;;;;;;;;;29.30;99.90;;;;;;5115207;28;19926;-72
2024/01/11 00:59:50;;;;;;;;;;;29.10;99.90;;;;;;5115069;28;19907;-73
2024/01/11 01:02:17;;;;;;;;;;;29.30;99.90;;;;;;5110263;28;19908;-73
2024/01/11 01:04:44;;;;;;;;;;;29.10;99.90;;;;;;5114366;28;20299;-70
2024/01/11 01:07:11;;;;;;;;;;;29.00;99.90;;;;;;5115156;28;19963;-71
2024/01/11 01:09:37;;;;;;;;;;;29.00;99.90;;;;;;5114155;28;19918;-72
2024/01/11 01:12:04;;;;;;;;;;;29.10;99.90;;;;;;5112184;28;20445;-67
2024/01/11 01:14:31;;;;;;;;;;;29.30;99.90;;;;;;5113854;28;19912;-73
2024/01/11 01:16:57;;;;;;;;;;;29.60;99.90;;;;;;5114610;28;19908;-74
2024/01/11 01:19:24;;;;;;;;;;;29.70;99.90;;;;;;5112786;27;19946;-75
2024/01/11 01:21:50;;;;;;;;;;;29.70;99.90;;;;;;5094535;28;19915;-77
2024/01/11 01:24:17;;;;;;;;;;;29.80;99.90;;;;;;5108083;27;19981;-71
2024/01/11 01:26:44;;;;;;;;;;;30.00;99.90;;;;;;5121568;27;19960;-67
2024/01/11 01:29:10;;;;;;;;;;;29.90;99.90;;;;;;5118912;27;19908;-73
2024/01/11 01:31:37;;;;;;;;;;;29.80;99.90;;;;;;5107171;28;19919;-69
2024/01/11 01:34:04;;;;;;;;;;;29.80;99.90;;;;;;5105898;28;19924;-69
2024/01/11 01:36:31;;;;;;;;;;;29.90;99.90;;;;;;5111725;28;19948;-70
2024/01/11 01:38:57;;;;;;;;;;;30.20;99.90;;;;;;5113341;28;20002;-71
2024/01/11 01:41:24;;;;;;;;;;;30.40;99.90;;;;;;5113461;28;20010;-74
2024/01/11 01:43:51;;;;;;;;;;;30.40;99.90;;;;;;5106149;28;19916;-66
2024/01/11 01:46:20;;;;;;;;;;;30.60;99.90;;;;;;5113309;28;19912;-67
2024/01/11 01:48:47;;;;;;;;;;;31.00;99.90;;;;;;5112868;28;20288;-72
2024/01/11 01:51:14;;;;;;;;;;;31.10;99.90;;;;;;5114036;28;19912;-72
2024/01/11 01:53:41;;;;;;;;;;;31.20;99.90;;;;;;5108527;28;19947;-74
2024/01/11 01:56:08;;;;;;;;;;;31.50;99.90;;;;;;5101198;28;19927;-67
2024/01/11 01:58:36;;;;;;;;;;;31.80;99.90;;;;;;5093018;28;19962;-74
2024/01/11 02:01:02;;;;;;;;;;;31.70;99.90;;;;;;5093246;28;20441;-75
2024/01/11 02:03:30;;;;;;;;;;;31.70;99.90;;;;;;5093238;28;19915;-74
2024/01/11 02:05:56;;;;;;;;;;;31.60;99.90;;;;;;5110215;28;19919;-74
2024/01/11 02:08:24;;;;;;;;;;;31.50;99.90;;;;;;5113809;28;19973;-69
2024/01/11 02:10:52;;;;;;;;;;;31.50;99.90;;;;;;5113461;28;19908;-75
2024/01/11 02:13:19;;;;;;;;;;;31.50;99.90;;;;;;5112457;28;19930;-72
2024/01/11 02:15:45;;;;;;;;;;;31.60;99.90;;;;;;5113609;28;19988;-79
2024/01/11 02:18:12;;;;;;;;;;;31.40;99.90;;;;;;5095531;28;19930;-75
2024/01/11 02:20:39;;;;;;;;;;;31.40;99.90;;;;;;5094490;28;20373;-70
2024/01/11 02:23:06;;;;;;;;;;;31.60;99.90;;;;;;5112028;28;19969;-77
2024/01/11 02:25:33;;;;;;;;;;;31.60;99.90;;;;;;5109102;28;19908;-69
2024/01/11 02:27:59;;;;;;;;;;;31.70;99.90;;;;;;5113566;28;19927;-70
2024/01/11 02:30:26;;;;;;;;;;;32.10;99.90;;;;;;5092752;28;19912;-74
2024/01/11 02:32:53;;;;;;;;;;;32.40;99.90;;;;;;5092590;28;20002;-73
2024/01/11 02:35:19;;;;;;;;;;;32.60;99.90;;;;;;5093146;28;19912;-69
2024/01/11 02:37:46;;;;;;;;;;;32.60;99.90;;;;;;5093314;28;19953;-72
2024/01/11 02:40:14;;;;;;;;;;;32.60;99.90;;;;;;5092841;28;19959;-74
2024/01/11 02:42:41;;;;;;;;;;;32.60;99.90;;;;;;5112454;28;19935;-76
2024/01/11 02:45:08;;;;;;;;;;;32.60;99.90;;;;;;5112938;28;19947;-72
2024/01/11 02:47:34;;;;;;;;;;;32.30;99.90;;;;;;5112858;28;19916;-70
2024/01/11 02:50:01;;;;;;;;;;;32.20;99.90;;;;;;5112963;28;20375;-73
2024/01/11 02:52:28;;;;;;;;;;;32.30;99.90;;;;;;5110362;28;19914;-71
2024/01/11 02:54:57;;;;;;;;;;;32.40;99.90;;;;;;5096630;28;20032;-70
2024/01/11 02:57:24;;;;;;;;;;;32.50;99.90;;;;;;5092703;28;19961;-71
2024/01/11 02:59:51;;;;;;;;;;;32.50;99.90;;;;;;5105698;28;19908;-71
2024/01/11 03:02:18;;;;;;;;;;;32.80;99.90;;;;;;5112432;28;19961;-70
2024/01/11 03:04:45;;;;;;;;;;;32.80;99.90;;;;;;5112736;28;19904;-72
2024/01/11 03:07:11;;;;;;;;;;;32.80;99.90;;;;;;5094545;28;20015;-74
2024/01/11 03:09:38;;;;;;;;;;;33.00;99.90;;;;;;5112654;28;20079;-69
2024/01/11 03:12:06;;;;;;;;;;;33.50;99.90;;;;;;5094353;28;19950;-76
2024/01/11 03:14:33;;;;;;;;;;;33.80;99.90;;;;;;5112771;28;19953;-76
2024/01/11 03:16:59;;;;;;;;;;;34.30;99.90;;;;;;5094384;28;20417;-75
2024/01/11 03:19:27;;;;;;;;;;;34.60;99.90;;;;;;5112918;28;19911;-74
2024/01/11 03:21:54;;;;;;;;;;;34.80;99.90;;;;;;5112152;28;19966;-73
2024/01/11 03:24:20;;;;;;;;;;;35.10;99.90;;;;;;5112393;28;19951;-71
2024/01/11 03:26:48;;;;;;;;;;;35.30;99.50;;;;;;5094414;28;19914;-73
2024/01/11 03:29:15;;;;;;;;;;;35.70;98.70;;;;;;5094408;28;19916;-68
2024/01/11 03:31:44;;;;;;;;;;;35.70;98.50;;;;;;5112403;28;20384;-74
2024/01/11 03:34:11;;;;;;;;;;;35.80;98.70;;;;;;5093584;28;20019;-74
2024/01/11 03:36:38;;;;;;;;;;;36.10;98.20;;;;;;5093942;28;19911;-69
2024/01/11 03:39:04;;;;;;;;;;;35.90;97.60;;;;;;5112548;28;19907;-73
2024/01/11 03:41:31;;;;;;;;;;;35.10;98.60;;;;;;5094415;28;20384;-71
2024/01/11 03:43:57;;;;;;;;;;;34.50;99.50;;;;;;5110326;28;19950;-71
2024/01/11 03:46:24;;;;;;;;;;;33.90;99.90;;;;;;5115952;28;19907;-65
2024/01/11 03:48:51;;;;;;;;;;;34.00;99.90;;;;;;5111302;28;20072;-73
2024/01/11 03:51:17;;;;;;;;;;;34.30;99.60;;;;;;5116432;28;19912;-72
2024/01/11 03:53:44;;;;;;;;;;;33.80;99.90;;;;;;5116028;28;19977;-73
2024/01/11 03:56:11;;;;;;;;;;;33.60;99.90;;;;;;5116301;28;20392;-70
2024/01/11 03:58:39;;;;;;;;;;;33.60;99.90;;;;;;5115975;28;20002;-70
2024/01/11 04:01:07;;;;;;;;;;;33.60;99.90;;;;;;5115629;28;19912;-74
2024/01/11 04:03:34;;;;;;;;;;;33.60;99.90;;;;;;5110523;28;19911;-71
2024/01/11 04:06:01;;;;;;;;;;;33.20;99.90;;;;;;5115536;28;19908;-71
2024/01/11 04:08:27;;;;;;;;;;;33.00;99.90;;;;;;5116371;28;20352;-74
2024/01/11 04:10:54;;;;;;;;;;;32.90;99.90;;;;;;5113897;28;20359;-75
2024/01/11 04:13:21;;;;;;;;;;;33.30;99.90;;;;;;5111084;28;19912;-74
2024/01/11 04:15:47;;;;;;;;;;;33.80;99.90;;;;;;5115811;28;19998;-68
2024/01/11 04:18:14;;;;;;;;;;;33.60;99.90;;;;;;5116058;28;19918;-73
2024/01/11 04:20:40;;;;;;;;;;;33.50;99.90;;;;;;5112148;28;19907;-73
2024/01/11 04:23:07;;;;;;;;;;;33.50;99.90;;;;;;5095823;28;19912;-68
2024/01/11 04:25:34;;;;;;;;;;;33.40;99.90;;;;;;5095443;28;19996;-72
2024/01/11 04:28:00;;;;;;;;;;;33.40;99.90;;;;;;5111988;28;20014;-69
2024/01/11 04:30:27;;;;;;;;;;;34.00;99.90;;;;;;5115677;28;19908;-73
2024/01/11 04:32:53;;;;;;;;;;;34.50;99.90;;;;;;5108743;28;19937;-68
2024/01/11 04:35:20;;;;;;;;;;;34.40;99.90;;;;;;5107126;28;20292;-70
2024/01/11 04:37:47;;;;;;;;;;;34.10;99.90;;;;;;5109355;28;19914;-74
2024/01/11 04:40:13;;;;;;;;;;;33.70;99.90;;;;;;5100457;28;19912;-72
2024/01/11 04:42:40;;;;;;;;;;;33.20;99.90;;;;;;5115097;28;19976;-69
2024/01/11 04:45:07;;;;;;;;;;;32.90;99.90;;;;;;5115398;28;20006;-64
2024/01/11 04:47:34;;;;;;;;;;;32.60;99.90;;;;;;5112040;28;19926;-65
2024/01/11 04:50:00;;;;;;;;;;;32.40;99.90;;;;;;5115602;28;19915;-69
2024/01/11 04:52:27;;;;;;;;;;;32.20;99.90;;;;;;5108831;28;19931;-67
2024/01/11 04:54:54;;;;;;;;;;;32.10;99.90;;;;;;5096844;28;19927;-68
2024/01/11 04:57:20;;;;;;;;;;;31.80;99.90;;;;;;5114086;28;19990;-70
2024/01/11 04:59:47;;;;;;;;;;;31.50;99.90;;;;;;5114849;28;20276;-68
2024/01/11 05:02:13;;;;;;;;;;;31.20;99.90;;;;;;5114320;28;19916;-67
2024/01/11 05:04:40;;;;;;;;;;;31.20;99.90;;;;;;5114596;28;19908;-71
2024/01/11 05:07:07;;;;;;;;;;;31.80;99.90;;;;;;5114220;28;19915;-69
2024/01/11 05:09:34;;;;;;;;;;;32.70;99.90;;;;;;5114530;28;20442;-74
2024/01/11 05:12:00;;;;;;;;;;;33.70;99.90;;;;;;5113957;28;19908;-66
2024/01/11 05:14:27;;;;;;;;;;;33.90;99.90;;;;;;5114044;28;19908;-67
2024/01/11 05:16:54;;;;;;;;;;;33.70;99.90;;;;;;5114347;28;20279;-74
2024/01/11 05:19:21;;;;;;;;;;;33.70;99.90;;;;;;5113478;28;19916;-72
2024/01/11 05:21:47;;;;;;;;;;;33.20;99.90;;;;;;5114673;28;19949;-70
2024/01/11 05:24:14;;;;;;;;;;;33.10;99.90;;;;;;5112528;28;19912;-69
2024/01/11 05:26:41;;;;;;;;;;;32.80;99.90;;;;;;5114683;28;19908;-78
2024/01/11 05:29:07;;;;;;;;;;;32.70;99.90;;;;;;5114120;28;19922;-70
2024/01/11 05:31:34;;;;;;;;;;;33.00;99.90;;;;;;5114429;28;20361;-72
2024/01/11 05:34:00;;;;;;;;;;;33.40;99.90;;;;;;5114037;28;19954;-66
2024/01/11 05:36:27;;;;;;;;;;;33.50;99.90;;;;;;5114311;28;19908;-73
2024/01/11 05:38:54;;;;;;;;;;;33.10;99.90;;;;;;5114559;28;19907;-68
2024/01/11 05:41:20;;;;;;;;;;;32.70;99.90;;;;;;5096112;28;19908;-66
2024/01/11 05:43:47;;;;;;;;;;;32.40;99.90;;;;;;5105430;28;19908;-68
2024/01/11 05:46:14;;;;;;;;;;;32.00;99.90;;;;;;5107650;28;20011;-73
2024/01/11 05:48:40;;;;;;;;;;;31.70;99.90;;;;;;5114143;28;20447;-66
2024/01/11 05:51:08;;;;;;;;;;;31.50;99.90;;;;;;5104551;28;20481;-69
2024/01/11 05:53:35;;;;;;;;;;;31.20;99.90;;;;;;5110711;28;19912;-72
2024/01/11 05:56:03;;;;;;;;;;;31.00;99.90;;;;;;5093804;28;19920;-71
2024/01/11 05:58:29;;;;;;;;;;;30.60;99.90;;;;;;5100707;28;20257;-65
2024/01/11 06:00:56;;;;;;;;;;;30.40;99.90;;;;;;5109082;28;20018;-67
2024/01/11 06:03:23;;;;;;;;;;;30.30;99.90;;;;;;5093022;28;20464;-66
2024/01/11 06:05:50;;;;;;;;;;;30.00;99.90;;;;;;5093399;28;19962;-66
2024/01/11 06:08:16;;;;;;;;;;;29.80;99.90;;;;;;5092755;28;20357;-66
2024/01/11 06:10:43;;;;;;;;;;;29.70;99.90;;;;;;5092841;28;19908;-69
2024/01/11 06:13:10;;;;;;;;;;;29.50;99.90;;;;;;5095965;28;19965;-69
2024/01/11 06:15:36;;;;;;;;;;;29.40;99.90;;;;;;5108305;28;20426;-67
2024/01/11 06:18:04;;;;;;;;;;;29.40;99.90;;;;;;5107247;28;19915;-69
2024/01/11 06:20:31;;;;;;;;;;;29.40;99.90;;;;;;5092855;28;19909;-72
2024/01/11 06:22:57;;;;;;;;;;;29.60;99.90;;;;;;5109349;28;19912;-73
2024/01/11 06:25:24;;;;;;;;;;;29.70;99.90;;;;;;5099670;28;19947;-72
2024/01/11 06:27:51;;;;;;;;;;;30.00;99.90;;;;;;5101523;28;19923;-67
2024/01/11 06:30:17;;;;;;;;;;;30.10;99.90;;;;;;5101041;28;19912;-71
2024/01/11 06:32:44;;;;;;;;;;;30.10;99.90;;;;;;5095940;28;19965;-74
2024/01/11 06:35:10;;;;;;;;;;;30.00;99.90;;;;;;5106797;28;19912;-71
2024/01/11 06:37:37;;;;;;;;;;;29.80;99.90;;;;;;5112441;28;19916;-68
2024/01/11 06:40:04;;;;;;;;;;;29.60;99.90;;;;;;5106810;28;20368;-68
2024/01/11 06:42:31;;;;;;;;;;;29.40;99.90;;;;;;5111721;28;20452;-67
2024/01/11 06:44:58;;;;;;;;;;;29.20;99.90;;;;;;5093027;28;19957;-68
2024/01/11 06:47:24;;;;;;;;;;;29.10;99.90;;;;;;5092551;28;19912;-71
2024/01/11 06:49:51;;;;;;;;;;;29.00;99.90;;;;;;5097987;28;19912;-67
2024/01/11 06:52:19;;;;;;;;;;;29.10;99.90;;;;;;5093257;28;20388;-72
2024/01/11 06:54:46;;;;;;;;;;;29.20;99.90;;;;;;5102704;28;20002;-74
2024/01/11 06:57:12;;;;;;;;;;;29.30;99.90;;;;;;5111951;28;19915;-72
2024/01/11 06:59:39;;;;;;;;;;;29.50;99.90;;;;;;5117507;27;19912;-68
2024/01/11 07:02:07;;;;;;;;;;;29.60;99.90;;;;;;5110931;28;19907;-77
2024/01/11 07:04:34;;;;;;;;;;;29.60;99.90;;;;;;5098330;27;20381;-74
2024/01/11 07:07:01;;;;;;;;;;;29.40;99.90;;;;;;5092009;28;19991;-72
2024/01/11 07:09:28;;;;;;;;;;;29.30;99.90;;;;;;5108292;28;19916;-67
2024/01/11 07:11:55;;;;;;;;;;;29.10;99.90;;;;;;5093345;28;20314;-72
2024/01/11 07:14:21;;;;;;;;;;;29.00;99.90;;;;;;5102813;27;19912;-74
2024/01/11 07:16:49;;;;;;;;;;;29.00;99.90;;;;;;5093460;28;19911;-70
2024/01/11 07:19:15;;;;;;;;;;;29.00;99.90;;;;;;5106023;28;19912;-71
2024/01/11 07:21:42;;;;;;;;;;;28.90;99.90;;;;;;5112666;28;19998;-68
2024/01/11 07:24:09;;;;;;;;;;;28.80;99.90;;;;;;5108848;27;19923;-75
2024/01/11 07:26:35;;;;;;;;;;;28.70;99.90;;;;;;5091378;28;19919;-66
2024/01/11 07:29:02;;;;;;;;;;;28.60;99.90;;;;;;5109609;28;19920;-65
2024/01/11 07:31:29;;;;;;;;;;;28.40;99.90;;;;;;5105690;28;19908;-69
2024/01/11 07:33:55;;;;;;;;;;;28.30;99.90;;;;;;5100289;28;19959;-69
2024/01/11 07:36:22;;;;;;;;;;;28.20;99.90;;;;;;5091613;28;19918;-71
2024/01/11 07:38:49;;;;;;;;;;;28.20;99.90;;;;;;5116456;28;19912;-69
2024/01/11 07:41:15;;;;;;;;;;;28.20;99.90;;;;;;5132882;28;19912;-65
2024/01/11 07:43:43;;;;;;;;;;;28.20;99.90;;;;;;5117146;28;19980;-67
2024/01/11 07:46:12;;;;;;;;;;;28.20;99.90;;;;;;5111428;28;20361;-65
2024/01/11 07:48:39;;;;;;;;;;;28.30;99.90;;;;;;5112698;28;19943;-66
2024/01/11 07:51:06;;;;;;;;;;;28.30;99.90;;;;;;5132521;28;20006;-73
2024/01/11 07:53:32;;;;;;;;;;;28.20;99.90;;;;;;5117417;28;19973;-70
2024/01/11 07:55:59;;;;;;;;;;;28.30;99.90;;;;;;5111434;28;19920;-67
2024/01/11 07:58:26;;;;;;;;;;;28.20;99.90;;;;;;5107517;28;20428;-68
2024/01/11 08:00:52;;;;;;;;;;;28.20;99.90;;;;;;5112116;28;19949;-67
2024/01/11 08:03:19;;;;;;;;;;;28.10;99.90;;;;;;5105989;28;19939;-67
2024/01/11 08:05:46;;;;;;;;;;;28.00;99.90;;;;;;5105981;28;19915;-66
2024/01/11 08:08:12;;;;;;;;;;;28.00;99.90;;;;;;5099519;28;20023;-67
2024/01/11 08:10:39;;;;;;;;;;;27.90;99.90;;;;;;5111271;28;20376;-69
2024/01/11 08:13:06;;;;;;;;;;;27.90;99.90;;;;;;5111670;28;20011;-70
2024/01/11 08:15:32;;;;;;;;;;;27.90;99.90;;;;;;5111710;28;19915;-69
2024/01/11 08:18:00;;;;;;;;;;;27.90;99.90;;;;;;5108901;28;20450;-66
2024/01/11 08:20:27;;;;;;;;;;;27.90;99.90;;;;;;5109228;28;19916;-69
2024/01/11 08:22:54;;;;;;;;;;;27.90;99.90;;;;;;5101349;28;19915;-70
2024/01/11 08:25:20;;;;;;;;;;;27.80;99.90;;;;;;5111433;28;19912;-64
2024/01/11 08:27:47;;;;;;;;;;;27.70;99.90;;;;;;5111606;28;19926;-68
2024/01/11 08:30:14;;;;;;;;;;;27.70;99.90;;;;;;5131299;27;19918;-71
2024/01/11 08:32:41;;;;;;;;;;;27.60;99.90;;;;;;5128545;27;19908;-73
2024/01/11 08:35:11;;;;;;;;;;;27.70;99.90;;;;;;5102073;27;19954;-72
2024/01/11 08:37:39;;;;;;;;;;;27.70;99.90;;;;;;5096433;28;20353;-74
2024/01/11 08:40:06;;;;;;;;;;;27.70;99.90;;;;;;5114971;28;19912;-73
2024/01/11 08:42:33;;;;;;;;;;;27.60;99.90;;;;;;5114844;28;19908;-71
2024/01/11 08:45:06;;;;;;;;;;;27.50;99.90;;;;;;5110182;28;19919;-72
2024/01/11 08:47:38;;;;;;;;;;;27.50;99.90;;;;;;5095076;27;19919;-71
2024/01/11 08:50:05;;;;;;;;;;;27.40;99.90;;;;;;5104754;28;19912;-72
2024/01/11 08:52:33;;;;;;;;;;;27.30;99.90;;;;;;5099324;28;19908;-69
2024/01/11 08:55:00;;;;;;;;;;;27.20;99.90;;;;;;5110139;28;19915;-66
2024/01/11 08:57:27;;;;;;;;;;;27.20;99.90;;;;;;5103058;28;19916;-65
2024/01/11 08:59:54;;;;;;;;;;;27.20;99.90;;;;;;5114769;27;19977;-68
2024/01/11 09:02:21;;;;;;;;;;;27.20;99.90;;;;;;5110887;28;19919;-65
2024/01/11 09:04:47;;;;;;;;;;;27.10;99.90;;;;;;5114476;27;19908;-65
2024/01/11 09:07:15;;;;;;;;;;;27.00;99.90;;;;;;5108008;28;20020;-70
2024/01/11 09:09:45;;;;;;;;;;;26.90;99.90;;;;;;5105016;28;20319;-68
2024/01/11 09:12:12;;;;;;;;;;;26.80;99.90;;;;;;5102890;28;19987;-64
2024/01/11 09:14:39;;;;;;;;;;;26.80;99.90;;;;;;5103237;27;20003;-71
2024/01/11 09:17:09;;;;;;;;;;;26.70;99.90;;;;;;5086467;28;20405;-71
2024/01/11 09:19:37;;;;;;;;;;;26.60;99.90;;;;;;5105257;28;19969;-67
2024/01/11 09:22:04;;;;;;;;;;;26.60;99.90;;;;;;5103689;28;19923;-73
2024/01/11 09:24:30;;;;;;;;;;;26.60;99.90;;;;;;5105272;27;20272;-64
2024/01/11 09:26:57;;;;;;;;;;;26.60;99.90;;;;;;5085677;28;19919;-67
2024/01/11 09:29:24;;;;;;;;;;;26.60;99.90;;;;;;5107387;27;19926;-69
2024/01/11 09:31:50;;;;;;;;;;;26.50;99.90;;;;;;5096119;28;19919;-69
2024/01/11 09:34:17;;;;;;;;;;;26.50;99.90;;;;;;5108726;28;19908;-69
2024/01/11 09:36:44;;;;;;;;;;;26.50;99.90;;;;;;5112937;28;19915;-70
2024/01/11 09:39:13;;;;;;;;;;;26.50;99.90;;;;;;5113790;28;19918;-68
2024/01/11 09:41:43;;;;;;;;;;;26.50;99.90;;;;;;5112661;28;19908;-64
2024/01/11 09:44:13;;;;;;;;;;;26.50;99.90;;;;;;5110510;28;20002;-66
2024/01/11 09:46:39;;;;;;;;;;;26.50;99.90;;;;;;5113703;28;19947;-69
2024/01/11 09:49:07;;;;;;;;;;;26.50;99.90;;;;;;5114141;28;20006;-68
2024/01/11 09:51:34;;;;;;;;;;;26.50;99.90;;;;;;5114501;28;19908;-67
2024/01/11 09:54:01;;;;;;;;;;;26.50;99.90;;;;;;5114575;28;19907;-67
2024/01/11 09:56:28;;;;;;;;;;;26.50;99.90;;;;;;5114227;28;19927;-67
2024/01/11 09:58:55;;;;;;;;;;;26.50;99.90;;;;;;5113836;28;19912;-66
2024/01/11 10:01:21;;;;;;;;;;;26.50;99.90;;;;;;5113877;28;20321;-65
2024/01/11 10:03:48;;;;;;;;;;;26.50;99.90;;;;;;5113842;27;19916;-67
2024/01/11 10:06:18;;;;;;;;;;;26.50;99.90;;;;;;5105494;28;19916;-67
2024/01/11 10:08:45;;;;;;;;;;;26.50;99.90;;;;;;5108145;28;19988;-67
2024/01/11 10:11:11;;;;;;;;;;;26.50;99.90;;;;;;5113383;28;19943;-67
2024/01/11 10:13:38;;;;;;;;;;;26.60;99.90;;;;;;5112870;28;19947;-67
2024/01/11 10:16:15;;;;;;;;;;;26.50;99.90;;;;;;5113195;28;19915;-69
2024/01/11 10:18:42;;;;;;;;;;;26.40;99.90;;;;;;5113398;28;19912;-70
2024/01/11 10:21:09;;;;;;;;;;;26.40;99.90;;;;;;5108956;28;19988;-66
2024/01/11 10:23:37;;;;;;;;;;;26.40;99.90;;;;;;5116750;27;19956;-66
2024/01/11 10:26:03;;;;;;;;;;;26.40;99.90;;;;;;5119135;27;19912;-69
2024/01/11 10:28:30;;;;;;;;;;;26.40;99.90;;;;;;5113005;28;19919;-66
2024/01/11 10:30:57;;;;;;;;;;;26.40;99.90;;;;;;5112756;28;20547;-66
2024/01/11 10:33:23;;;;;;;;;;;26.30;99.90;;;;;;5112377;28;19922;-66
2024/01/11 10:35:50;;;;;;;;;;;26.30;99.90;;;;;;5112975;28;19976;-67
2024/01/11 10:38:21;;;;;;;;;;;26.30;99.90;;;;;;5112794;27;20508;-74
2024/01/11 10:40:48;;;;;;;;;;;26.30;99.90;;;;;;5105661;28;19976;-67
2024/01/11 10:43:19;;;;;;;;;;;26.20;99.90;;;;;;5095495;28;20005;-67
2024/01/11 10:45:48;;;;;;;;;;;26.10;99.90;;;;;;5112130;28;19908;-67
2024/01/11 10:48:15;;;;;;;;;;;26.10;99.90;;;;;;5112462;28;19923;-68
2024/01/11 10:50:43;;;;;;;;;;;26.10;99.90;;;;;;5126082;27;20543;-68
2024/01/11 10:53:09;;;;;;;;;;;26.10;99.90;;;;;;5112125;28;19930;-75
2024/01/11 10:55:36;;;;;;;;;;;26.10;99.90;;;;;;5104660;28;19920;-66
2024/01/11 10:58:04;;;;;;;;;;;26.20;99.90;;;;;;5099995;28;19939;-68
2024/01/11 11:00:31;;;;;;;;;;;26.20;99.90;;;;;;5105256;28;20292;-71
2024/01/11 11:03:00;;;;;;;;;;;26.20;99.90;;;;;;5100839;28;19914;-68
2024/01/11 11:05:29;;;;;;;;;;;26.20;99.90;;;;;;5103431;27;20315;-71
2024/01/11 11:07:56;;;;;;;;;;;26.20;99.90;;;;;;5101520;28;19967;-68
2024/01/11 11:10:25;;;;;;;;;;;26.20;99.90;;;;;;5108352;27;19912;-75
2024/01/11 11:12:57;;;;;;;;;;;26.10;99.90;;;;;;5112050;28;20352;-67
2024/01/11 11:15:24;;;;;;;;;;;26.20;99.90;;;;;;5100064;27;19916;-67
2024/01/11 11:17:52;;;;;;;;;;;26.10;99.90;;;;;;5094643;28;19958;-69
2024/01/11 11:20:19;;;;;;;;;;;26.00;99.90;;;;;;5101932;28;19912;-66
2024/01/11 11:23:04;;;;;;;;;;;26.00;99.90;;;;;;5112589;28;19912;-65
2024/01/11 11:25:31;;;;;;;;;;;26.00;99.90;;;;;;5112537;28;19912;-68
2024/01/11 11:27:58;;;;;;;;;;;25.90;99.90;;;;;;5096214;28;19912;-72
2024/01/11 11:30:25;;;;;;;;;;;25.90;99.90;;;;;;5102501;28;19967;-67
2024/01/11 11:32:52;;;;;;;;;;;25.90;99.90;;;;;;5112507;28;19991;-67
2024/01/11 11:35:19;;;;;;;;;;;25.90;99.90;;;;;;5109359;28;19927;-69
2024/01/11 11:37:46;;;;;;;;;;;25.90;99.90;;;;;;5092501;28;19964;-68
2024/01/11 11:40:12;;;;;;;;;;;25.90;99.90;;;;;;5092608;28;19915;-67
2024/01/11 11:42:40;;;;;;;;;;;25.80;99.90;;;;;;5092353;28;20280;-69
2024/01/11 11:45:10;;;;;;;;;;;25.80;99.90;;;;;;5092576;28;19908;-66
2024/01/11 11:47:38;;;;;;;;;;;25.70;99.90;;;;;;5091933;28;19969;-72
2024/01/11 11:50:09;;;;;;;;;;;25.70;99.90;;;;;;5092500;28;19908;-72
2024/01/11 11:52:39;;;;;;;;;;;25.60;99.90;;;;;;5092334;28;19994;-72
2024/01/11 11:55:07;;;;;;;;;;;25.60;99.90;;;;;;5106748;28;20065;-73
2024/01/11 11:57:34;;;;;;;;;;;25.50;99.90;;;;;;5112587;28;19919;-69
2024/01/11 12:00:07;;;;;;;;;;;25.60;99.90;;;;;;5112172;28;19912;-68
2024/01/11 12:02:35;;;;;;;;;;;25.60;99.90;;;;;;5104052;28;19919;-67
2024/01/11 12:05:03;;;;;;;;;;;25.50;99.90;;;;;;5093123;28;19930;-71
2024/01/11 12:07:30;;;;;;;;;;;25.50;99.90;;;;;;5115559;28;20007;-68
2024/01/11 12:09:57;;;;;;;;;;;25.50;99.90;;;;;;5116647;28;20316;-65
2024/01/11 12:12:24;;;;;;;;;;;25.60;99.90;;;;;;5116313;28;20006;-65
2024/01/11 12:14:51;;;;;;;;;;;25.60;99.90;;;;;;5116184;28;19961;-67
2024/01/11 12:17:17;;;;;;;;;;;25.60;99.90;;;;;;5115771;28;19912;-68
2024/01/11 12:19:44;;;;;;;;;;;25.60;99.90;;;;;;5116055;28;19907;-66
2024/01/11 12:22:11;;;;;;;;;;;25.60;99.90;;;;;;5116249;28;19908;-71
2024/01/11 12:24:37;;;;;;;;;;;25.60;99.90;;;;;;5116529;28;20260;-71
2024/01/11 12:27:04;;;;;;;;;;;25.50;99.90;;;;;;5116232;28;19911;-70
2024/01/11 12:29:31;;;;;;;;;;;25.50;99.90;;;;;;5115556;28;19962;-68
2024/01/11 12:32:01;;;;;;;;;;;25.50;99.90;;;;;;5116045;28;19907;-69
2024/01/11 12:34:28;;;;;;;;;;;25.50;99.90;;;;;;5115658;28;19918;-67
2024/01/11 12:36:55;;;;;;;;;;;25.50;99.90;;;;;;5115731;28;19935;-71
2024/01/11 12:39:25;;;;;;;;;;;25.50;99.90;;;;;;5115825;28;19912;-66
2024/01/11 12:41:51;;;;;;;;;;;25.50;99.90;;;;;;5115984;28;20447;-69
2024/01/11 12:44:21;;;;;;;;;;;25.50;99.90;;;;;;5115717;28;19908;-69
2024/01/11 12:46:51;;;;;;;;;;;25.50;99.90;;;;;;5115779;28;19914;-72
2024/01/11 12:49:18;;;;;;;;;;;25.50;99.90;;;;;;5116068;28;20363;-72
2024/01/11 12:51:44;;;;;;;;;;;25.60;99.90;;;;;;5115415;28;20276;-71
2024/01/11 12:54:14;;;;;;;;;;;25.60;99.90;;;;;;5115564;28;19915;-68
2024/01/11 12:56:42;;;;;;;;;;;25.60;99.90;;;;;;5115495;28;19920;-72
2024/01/11 12:59:09;;;;;;;;;;;25.60;99.90;;;;;;5115496;28;19930;-72
2024/01/11 13:01:36;;;;;;;;;;;25.50;99.90;;;;;;5114968;28;19977;-68
2024/01/11 13:04:03;;;;;;;;;;;25.50;99.90;;;;;;5115096;28;19912;-68
2024/01/11 13:06:31;;;;;;;;;;;25.50;99.90;;;;;;5115530;28;19914;-69
2024/01/11 13:08:57;;;;;;;;;;;25.50;99.90;;;;;;5115087;28;19916;-70
2024/01/11 13:11:28;;;;;;;;;;;25.50;99.90;;;;;;5114564;28;19919;-70
2024/01/11 13:13:55;;;;;;;;;;;25.50;99.90;;;;;;5115201;28;19970;-71
2024/01/11 13:16:21;;;;;;;;;;;25.50;99.90;;;;;;5114516;28;19908;-67
2024/01/11 13:18:48;;;;;;;;;;;25.50;99.90;;;;;;5115230;28;19915;-68
2024/01/11 13:21:15;;;;;;;;;;;25.50;99.90;;;;;;5114906;28;20411;-71
2024/01/11 13:23:42;;;;;;;;;;;25.50;99.90;;;;;;5113092;28;20011;-69
2024/01/11 13:26:08;;;;;;;;;;;25.50;99.90;;;;;;5114524;28;19919;-73
2024/01/11 13:28:35;;;;;;;;;;;25.50;99.90;;;;;;5115100;28;20253;-74
2024/01/11 13:31:02;;;;;;;;;;;25.60;99.90;;;;;;5114440;28;19908;-67
2024/01/11 13:33:29;;;;;;;;;;;25.60;99.90;;;;;;5114902;28;19912;-67
2024/01/11 13:35:55;;;;;;;;;;;25.50;99.90;;;;;;5114878;28;20364;-73
2024/01/11 13:38:22;;;;;;;;;;;25.60;99.90;;;;;;5114923;28;20429;-71
2024/01/11 13:40:49;;;;;;;;;;;25.60;99.90;;;;;;5114599;28;20383;-75
2024/01/11 13:43:17;;;;;;;;;;;25.60;99.90;;;;;;5099216;28;20368;-74
2024/01/11 13:45:44;;;;;;;;;;;25.50;99.90;;;;;;5097787;28;20388;-72
2024/01/11 13:48:11;;;;;;;;;;;25.60;99.90;;;;;;5108629;28;19916;-74
2024/01/11 13:50:37;;;;;;;;;;;25.60;99.90;;;;;;5094044;28;19916;-74
2024/01/11 13:53:04;;;;;;;;;;;25.50;99.90;;;;;;5094144;28;20014;-74
2024/01/11 13:55:37;;;;;;;;;;;25.60;99.90;;;;;;5093698;28;19942;-69
2024/01/11 13:58:04;;;;;;;;;;;25.50;99.90;;;;;;5094311;28;19916;-75
2024/01/11 14:00:31;;;;;;;;;;;25.50;99.90;;;;;;5093932;28;20381;-74
2024/01/11 14:02:57;;;;;;;;;;;25.40;99.90;;;;;;5075514;28;19951;-67
2024/01/11 14:05:24;;;;;;;;;;;25.40;99.90;;;;;;5093911;28;19908;-68
2024/01/11 14:07:57;;;;;;;;;;;25.50;99.90;;;;;;5093781;28;20277;-73
2024/01/11 14:10:24;;;;;;;;;;;25.50;99.90;;;;;;5094504;28;19955;-70
2024/01/11 14:12:50;;;;;;;;;;;25.50;99.90;;;;;;5094011;28;19909;-71
2024/01/11 14:15:17;;;;;;;;;;;25.50;99.90;;;;;;5093714;28;19962;-70